Time;durP1;ratioP1;P1;durP2;ratioP2;P2;SDS_P1;SDS_P2;PMS_P1;PMS_P2;Temp;Humidity;BMP_temperature;BMP_pressure;BME280_temperature;BME280_humidity;BME280_pressure;Samples;Min_cycle;Max_cycle;Signal;HPM_P1;HPM_P2
2023/06/05 00:01:48;;;;;;;7.10;5.30;;;15.20;99.90;;;;;;5137613;27;20130;-70
2023/06/05 00:04:14;;;;;;;6.07;5.22;;;15.20;99.90;;;;;;5137184;27;20032;-70
2023/06/05 00:06:40;;;;;;;5.85;5.25;;;15.10;99.90;;;;;;5137111;27;20357;-70
2023/06/05 00:09:06;;;;;;;6.80;5.60;;;15.10;99.90;;;;;;5137074;27;20062;-70
2023/06/05 00:11:32;;;;;;;7.90;5.53;;;15.10;99.90;;;;;;5118553;27;20460;-70
2023/06/05 00:13:58;;;;;;;6.88;5.90;;;15.10;99.90;;;;;;5118332;27;20039;-71
2023/06/05 00:16:24;;;;;;;6.38;5.30;;;15.10;99.90;;;;;;5137138;27;20023;-70
2023/06/05 00:18:50;;;;;;;9.27;5.97;;;15.10;99.90;;;;;;5136822;27;20045;-71
2023/06/05 00:21:16;;;;;;;7.65;6.43;;;15.10;99.90;;;;;;5118395;27;20467;-70
2023/06/05 00:23:41;;;;;;;6.75;5.75;;;15.10;99.90;;;;;;5136912;27;20106;-70
2023/06/05 00:26:07;;;;;;;10.20;6.40;;;15.10;99.90;;;;;;5136709;27;20031;-70
2023/06/05 00:28:33;;;;;;;6.90;5.63;;;15.10;99.90;;;;;;5136691;27;20430;-71
2023/06/05 00:30:59;;;;;;;8.60;6.47;;;15.10;99.90;;;;;;5136535;27;20050;-70
2023/06/05 00:33:26;;;;;;;6.18;5.57;;;15.10;99.90;;;;;;5136765;27;20059;-71
2023/06/05 00:35:52;;;;;;;8.05;6.30;;;15.10;99.90;;;;;;5136507;27;20043;-71
2023/06/05 00:38:18;;;;;;;8.93;6.38;;;15.10;99.90;;;;;;5118071;27;20165;-71
2023/06/05 00:40:43;;;;;;;9.52;6.63;;;15.10;99.90;;;;;;5118025;27;20586;-71
2023/06/05 00:43:09;;;;;;;8.02;6.13;;;15.10;99.90;;;;;;5118052;27;20138;-70
2023/06/05 00:45:34;;;;;;;7.30;6.60;;;15.10;99.90;;;;;;5136049;27;20054;-70
2023/06/05 00:48:01;;;;;;;6.93;6.22;;;15.00;99.90;;;;;;5118112;27;20035;-70
2023/06/05 00:50:27;;;;;;;9.82;6.90;;;15.00;99.90;;;;;;5136190;27;20035;-70
2023/06/05 00:52:53;;;;;;;13.00;6.93;;;15.00;99.90;;;;;;5117749;27;20054;-70
2023/06/05 00:55:19;;;;;;;9.55;7.90;;;15.00;99.90;;;;;;5117679;27;20034;-70
2023/06/05 00:57:45;;;;;;;10.48;7.57;;;15.00;99.90;;;;;;5118214;27;20055;-70
2023/06/05 01:00:14;;;;;;;12.18;8.07;;;15.00;99.90;;;;;;5117707;27;20499;-70
2023/06/05 01:02:40;;;;;;;15.90;9.20;;;15.00;99.90;;;;;;5135744;27;20075;-70
2023/06/05 01:05:07;;;;;;;11.35;8.90;;;15.00;99.90;;;;;;5135944;27;20111;-70
2023/06/05 01:07:37;;;;;;;12.75;9.27;;;15.00;99.90;;;;;;5135928;27;20084;-70
2023/06/05 01:10:05;;;;;;;11.13;9.20;;;14.90;99.90;;;;;;5135885;27;20138;-70
2023/06/05 01:12:51;;;;;;;10.50;8.45;;;15.00;99.90;;;;;;5135460;27;20584;-70
2023/06/05 01:15:18;;;;;;;11.38;8.82;;;15.00;99.90;;;;;;5135880;27;20084;-70
2023/06/05 01:17:47;;;;;;;12.07;9.93;;;15.00;99.90;;;;;;5135354;27;20393;-70
2023/06/05 01:20:13;;;;;;;11.07;9.38;;;15.00;99.90;;;;;;5117229;27;20031;-71
2023/06/05 01:22:39;;;;;;;13.45;10.68;;;15.00;99.90;;;;;;5135316;27;20110;-70
2023/06/05 01:25:09;;;;;;;14.55;11.20;;;15.00;99.90;;;;;;5135678;27;20499;-71
2023/06/05 01:27:44;;;;;;;15.32;12.30;;;14.90;99.90;;;;;;5135512;27;20023;-71
2023/06/05 01:30:28;;;;;;;15.05;12.32;;;14.90;99.90;;;;;;5135794;27;20031;-71
2023/06/05 01:33:02;;;;;;;16.20;13.73;;;14.90;99.90;;;;;;5135512;27;20035;-70
2023/06/05 01:35:32;;;;;;;16.98;14.95;;;14.90;99.90;;;;;;5117104;27;20392;-70
2023/06/05 01:37:59;;;;;;;18.90;15.50;;;14.90;99.90;;;;;;5135383;27;20027;-70
2023/06/05 01:40:26;;;;;;;20.70;17.23;;;14.90;99.90;;;;;;5135342;27;20027;-71
2023/06/05 01:42:54;;;;;;;22.30;17.55;;;14.90;99.90;;;;;;5135260;27;20062;-71
2023/06/05 01:45:20;;;;;;;20.45;18.23;;;14.90;99.90;;;;;;5135026;27;20045;-70
2023/06/05 01:47:49;;;;;;;21.70;18.02;;;14.90;99.90;;;;;;5135170;27;20035;-70
2023/06/05 01:50:16;;;;;;;24.92;18.60;;;14.90;99.90;;;;;;5135142;27;20087;-70
2023/06/05 01:52:42;;;;;;;25.38;19.05;;;15.00;99.90;;;;;;5135022;27;20027;-70
2023/06/05 01:55:20;;;;;;;23.50;20.50;;;15.00;99.90;;;;;;5116672;27;20039;-70
2023/06/05 01:57:45;;;;;;;22.20;19.88;;;15.00;99.90;;;;;;5135160;27;20042;-70
2023/06/05 02:00:15;;;;;;;25.17;20.73;;;15.00;99.90;;;;;;5135050;27;20031;-70
2023/06/05 02:02:45;;;;;;;22.70;20.08;;;15.00;99.90;;;;;;5116201;27;20051;-71
2023/06/05 02:05:12;;;;;;;24.27;20.25;;;15.00;99.90;;;;;;5134628;27;20519;-71
2023/06/05 02:07:40;;;;;;;22.05;19.42;;;15.00;99.90;;;;;;5135434;27;20034;-71
2023/06/05 02:10:08;;;;;;;24.10;21.02;;;15.00;99.90;;;;;;5135418;27;20023;-71
2023/06/05 02:12:34;;;;;;;22.88;20.40;;;15.10;99.90;;;;;;5116525;27;20133;-70
2023/06/05 02:15:00;;;;;;;26.60;20.48;;;15.10;99.90;;;;;;5134739;27;20108;-71
2023/06/05 02:17:26;;;;;;;23.13;19.27;;;15.10;99.90;;;;;;5117054;28;20040;-71
2023/06/05 02:19:52;;;;;;;24.95;20.45;;;15.10;99.90;;;;;;5134497;28;20458;-71
2023/06/05 02:22:18;;;;;;;26.23;19.58;;;15.10;99.90;;;;;;5134821;28;20037;-71
2023/06/05 02:24:44;;;;;;;22.23;18.27;;;15.10;99.90;;;;;;5117028;28;20385;-71
2023/06/05 02:27:10;;;;;;;20.70;18.08;;;15.10;99.90;;;;;;5134678;28;20493;-70
2023/06/05 02:29:37;;;;;;;24.15;19.73;;;15.10;99.90;;;;;;5116301;28;20031;-71
2023/06/05 02:32:04;;;;;;;21.48;17.83;;;15.10;99.90;;;;;;5134456;28;20032;-71
2023/06/05 02:34:30;;;;;;;20.35;17.55;;;15.10;99.90;;;;;;5116139;28;20039;-71
2023/06/05 02:36:55;;;;;;;23.90;18.25;;;15.00;99.90;;;;;;5134669;28;20030;-71
2023/06/05 02:39:21;;;;;;;23.83;18.20;;;15.10;99.90;;;;;;5116110;28;20035;-70
2023/06/05 02:41:47;;;;;;;22.58;17.63;;;15.00;99.90;;;;;;5134251;28;20042;-71
2023/06/05 02:44:12;;;;;;;21.50;18.85;;;15.00;99.90;;;;;;5116085;28;20031;-71
2023/06/05 02:46:38;;;;;;;24.45;19.33;;;15.00;99.90;;;;;;5134225;28;20036;-71
2023/06/05 02:49:04;;;;;;;26.58;19.45;;;15.00;99.90;;;;;;5134463;28;20035;-71
2023/06/05 02:51:30;;;;;;;22.42;18.80;;;15.00;99.90;;;;;;5115703;28;20068;-70
2023/06/05 02:53:55;;;;;;;23.45;18.85;;;15.00;99.90;;;;;;5116076;28;20035;-71
2023/06/05 02:56:21;;;;;;;20.02;17.88;;;15.00;99.90;;;;;;5134488;28;20023;-71
2023/06/05 02:58:47;;;;;;;31.15;18.88;;;15.00;99.90;;;;;;5134368;28;20524;-71
2023/06/05 03:01:14;;;;;;;23.92;17.65;;;15.00;99.90;;;;;;5115780;28;20480;-71
2023/06/05 03:03:40;;;;;;;24.00;18.00;;;15.00;99.90;;;;;;5134294;28;20031;-70
2023/06/05 03:06:06;;;;;;;23.27;18.65;;;15.00;99.90;;;;;;5134427;28;20453;-70
2023/06/05 03:08:34;;;;;;;20.55;17.52;;;15.00;99.90;;;;;;5134566;28;20050;-70
2023/06/05 03:11:00;;;;;;;22.30;17.30;;;15.00;99.90;;;;;;5134164;28;20159;-70
2023/06/05 03:13:26;;;;;;;22.45;17.35;;;15.00;99.90;;;;;;5134521;28;20110;-71
2023/06/05 03:15:53;;;;;;;22.30;17.23;;;15.00;99.90;;;;;;5134168;28;20119;-70
2023/06/05 03:18:21;;;;;;;21.13;16.25;;;15.00;99.90;;;;;;5115793;28;20063;-71
2023/06/05 03:20:54;;;;;;;17.90;14.73;;;15.00;99.90;;;;;;5115738;28;20039;-71
2023/06/05 03:23:23;;;;;;;20.25;15.25;;;15.00;99.90;;;;;;5134214;28;20159;-70
2023/06/05 03:25:50;;;;;;;19.90;16.38;;;15.00;99.90;;;;;;5137066;27;20031;-71
2023/06/05 03:28:16;;;;;;;17.42;13.15;;;15.10;99.90;;;;;;5119506;27;20031;-70
2023/06/05 03:30:41;;;;;;;17.65;13.93;;;15.10;99.90;;;;;;5137813;27;20054;-71
2023/06/05 03:33:07;;;;;;;16.50;13.25;;;15.10;99.90;;;;;;5119368;27;20119;-70
2023/06/05 03:35:33;;;;;;;16.02;13.65;;;15.10;99.90;;;;;;5119595;27;20482;-71
2023/06/05 03:37:59;;;;;;;15.55;13.88;;;15.10;99.90;;;;;;5137812;27;20091;-71
2023/06/05 03:40:24;;;;;;;17.08;13.77;;;15.10;99.90;;;;;;5137678;27;20055;-71
2023/06/05 03:42:51;;;;;;;17.90;13.60;;;15.10;99.90;;;;;;5137578;27;20061;-70
2023/06/05 03:45:16;;;;;;;16.52;14.32;;;15.10;99.90;;;;;;5137687;27;20030;-70
2023/06/05 03:47:44;;;;;;;17.92;14.25;;;15.10;99.90;;;;;;5137443;27;20023;-70
2023/06/05 03:50:11;;;;;;;15.20;13.45;;;15.10;99.90;;;;;;5119100;27;20061;-70
2023/06/05 03:52:39;;;;;;;20.67;15.88;;;15.10;99.90;;;;;;5137404;27;20031;-70
2023/06/05 03:55:07;;;;;;;17.15;14.82;;;15.10;99.90;;;;;;5118900;27;20466;-70
2023/06/05 03:57:33;;;;;;;19.57;15.20;;;15.20;99.90;;;;;;5137374;27;20541;-70
2023/06/05 03:59:59;;;;;;;20.92;15.30;;;15.20;99.90;;;;;;5137041;27;20261;-70
2023/06/05 04:02:25;;;;;;;15.80;14.10;;;;;;;;;;5137824;27;20047;-70
2023/06/05 04:04:51;;;;;;;20.00;15.13;;;15.20;99.90;;;;;;5136877;27;20392;-70
2023/06/05 04:07:17;;;;;;;16.10;14.23;;;15.20;99.90;;;;;;5118949;27;20028;-70
2023/06/05 04:09:43;;;;;;;20.08;14.07;;;15.20;99.90;;;;;;5137248;27;20032;-70
2023/06/05 04:12:13;;;;;;;17.05;13.98;;;15.20;99.90;;;;;;5137090;27;20035;-75
2023/06/05 04:14:39;;;;;;;16.60;13.65;;;15.20;99.90;;;;;;5118630;27;20039;-66
2023/06/05 04:17:05;;;;;;;17.42;13.27;;;15.20;99.90;;;;;;5136661;27;20031;-71
2023/06/05 04:19:31;;;;;;;16.23;12.30;;;15.30;99.90;;;;;;5136880;27;20114;-68
2023/06/05 04:21:56;;;;;;;14.68;11.15;;;15.30;99.90;;;;;;5136786;27;20035;-69
2023/06/05 04:24:24;;;;;;;14.68;11.40;;;15.30;99.90;;;;;;5118422;27;20126;-68
2023/06/05 04:26:51;;;;;;;12.85;10.55;;;15.40;99.90;;;;;;5118501;27;20069;-68
2023/06/05 04:29:18;;;;;;;15.13;10.90;;;15.40;99.90;;;;;;5136365;27;20379;-68
2023/06/05 04:31:47;;;;;;;14.23;10.23;;;15.40;99.90;;;;;;5118201;27;20039;-69
2023/06/05 04:34:13;;;;;;;15.05;10.50;;;15.40;99.90;;;;;;5118083;27;20079;-69
2023/06/05 04:36:40;;;;;;;13.65;10.32;;;15.40;99.90;;;;;;5135448;27;20031;-68
2023/06/05 04:39:10;;;;;;;13.50;10.23;;;15.40;99.90;;;;;;5118052;27;20035;-68
2023/06/05 04:41:37;;;;;;;9.20;7.97;;;15.40;99.90;;;;;;5136631;27;20465;-70
2023/06/05 04:44:03;;;;;;;16.42;9.65;;;15.40;99.90;;;;;;5136040;27;20087;-69
2023/06/05 04:46:28;;;;;;;17.75;9.82;;;15.40;99.90;;;;;;5117833;27;20527;-69
2023/06/05 04:48:57;;;;;;;12.02;8.70;;;15.40;99.90;;;;;;5117762;27;20031;-69
2023/06/05 04:51:23;;;;;;;13.30;8.93;;;15.50;99.90;;;;;;5117720;27;20035;-69
2023/06/05 04:53:52;;;;;;;14.07;8.45;;;15.50;99.90;;;;;;5136207;27;20039;-69
2023/06/05 04:56:20;;;;;;;10.55;7.95;;;15.60;99.90;;;;;;5136593;27;20031;-69
2023/06/05 04:58:47;;;;;;;9.17;7.27;;;15.60;99.90;;;;;;5136190;27;20087;-69
2023/06/05 05:01:13;;;;;;;10.02;7.05;;;15.70;99.90;;;;;;5135832;27;20049;-69
2023/06/05 05:03:42;;;;;;;11.20;6.97;;;15.90;99.90;;;;;;5136089;27;20395;-69
2023/06/05 05:06:09;;;;;;;11.07;7.78;;;16.00;99.90;;;;;;5117405;27;20498;-69
2023/06/05 05:08:36;;;;;;;9.07;6.85;;;16.10;99.90;;;;;;5117256;27;20062;-69
2023/06/05 05:11:02;;;;;;;10.63;7.25;;;16.20;99.90;;;;;;5117337;27;20085;-69
2023/06/05 05:13:27;;;;;;;10.35;6.40;;;16.30;99.90;;;;;;5135381;27;20488;-69
2023/06/05 05:15:54;;;;;;;13.52;6.63;;;16.30;99.90;;;;;;5135475;27;20066;-69
2023/06/05 05:18:19;;;;;;;10.20;6.32;;;16.40;99.90;;;;;;5135432;27;20510;-69
2023/06/05 05:20:46;;;;;;;8.13;6.82;;;16.40;99.90;;;;;;5135872;27;20035;-69
2023/06/05 05:23:12;;;;;;;10.60;6.97;;;16.30;99.90;;;;;;5135640;27;20023;-69
2023/06/05 05:25:38;;;;;;;10.52;6.88;;;16.40;99.90;;;;;;5135438;27;20030;-69
2023/06/05 05:28:04;;;;;;;8.68;6.50;;;16.50;99.90;;;;;;5117580;27;20073;-69
2023/06/05 05:30:30;;;;;;;8.15;6.30;;;16.70;99.90;;;;;;5116837;27;20130;-69
2023/06/05 05:32:56;;;;;;;9.88;7.35;;;16.70;99.90;;;;;;5135321;27;20122;-70
2023/06/05 05:35:22;;;;;;;8.50;6.32;;;16.80;99.90;;;;;;5135418;27;20049;-69
2023/06/05 05:37:48;;;;;;;8.38;6.38;;;16.90;99.90;;;;;;5136077;27;20534;-69
2023/06/05 05:40:13;;;;;;;13.27;6.18;;;16.80;99.90;;;;;;5134968;27;20035;-69
2023/06/05 05:42:39;;;;;;;9.13;6.40;;;16.90;99.90;;;;;;5135178;27;20086;-69
2023/06/05 05:45:06;;;;;;;9.68;6.75;;;16.90;99.90;;;;;;5135212;27;20384;-70
2023/06/05 05:47:31;;;;;;;12.23;6.50;;;16.90;99.90;;;;;;5116086;27;20035;-69
2023/06/05 05:49:57;;;;;;;8.93;6.30;;;16.90;99.90;;;;;;5135094;27;20119;-69
2023/06/05 05:52:22;;;;;;;7.07;6.05;;;16.90;99.90;;;;;;5116402;27;20035;-69
2023/06/05 05:54:48;;;;;;;9.75;5.85;;;16.90;99.90;;;;;;5135129;27;20139;-69
2023/06/05 05:57:14;;;;;;;13.32;6.57;;;16.90;99.90;;;;;;5116493;27;20042;-69
2023/06/05 05:59:44;;;;;;;8.00;5.90;;;16.90;99.90;;;;;;5117087;27;20039;-69
2023/06/05 06:02:11;;;;;;;9.05;6.22;;;16.90;99.90;;;;;;5116397;27;20395;-69
2023/06/05 06:04:38;;;;;;;9.10;5.45;;;16.90;99.90;;;;;;5116408;27;20122;-69
2023/06/05 06:07:05;;;;;;;8.23;5.50;;;16.90;99.90;;;;;;5134771;27;20094;-69
2023/06/05 06:09:31;;;;;;;10.50;5.78;;;17.00;99.90;;;;;;5134864;27;20027;-69
2023/06/05 06:11:57;;;;;;;7.38;5.13;;;17.00;99.90;;;;;;5134702;27;20030;-69
2023/06/05 06:14:23;;;;;;;7.43;5.15;;;17.10;99.90;;;;;;5134973;27;20042;-69
2023/06/05 06:16:50;;;;;;;7.97;5.43;;;17.10;99.90;;;;;;5134864;27;20031;-69
2023/06/05 06:19:16;;;;;;;6.90;4.95;;;17.10;99.90;;;;;;5134450;27;20497;-69
2023/06/05 06:21:42;;;;;;;7.47;4.95;;;17.20;99.90;;;;;;5116159;27;20059;-69
2023/06/05 06:24:09;;;;;;;13.40;5.55;;;17.40;99.90;;;;;;5116869;28;20084;-68
2023/06/05 06:26:38;;;;;;;6.80;5.15;;;17.40;99.90;;;;;;5134330;28;20456;-69
2023/06/05 06:29:04;;;;;;;7.28;4.80;;;17.40;99.90;;;;;;5115804;28;20032;-69
2023/06/05 06:31:30;;;;;;;6.90;4.80;;;17.40;99.90;;;;;;5115988;28;20043;-69
2023/06/05 06:33:56;;;;;;;9.27;4.90;;;;;;;;;;5134640;28;20031;-69
2023/06/05 06:36:22;;;;;;;7.50;5.28;;;17.40;99.90;;;;;;5116013;28;20088;-69
2023/06/05 06:38:47;;;;;;;7.60;5.82;;;17.50;99.90;;;;;;5134544;28;20031;-69
2023/06/05 06:41:13;;;;;;;9.85;5.57;;;17.60;99.90;;;;;;5134407;28;20392;-70
2023/06/05 06:43:39;;;;;;;7.65;5.05;;;17.60;99.90;;;;;;5115997;28;20495;-69
2023/06/05 06:46:06;;;;;;;8.20;5.40;;;17.80;99.90;;;;;;5134138;28;20031;-69
2023/06/05 06:48:32;;;;;;;8.38;5.70;;;18.00;99.90;;;;;;5134451;28;20034;-69
2023/06/05 06:50:58;;;;;;;10.73;5.50;;;18.00;99.90;;;;;;5134371;28;20114;-69
2023/06/05 06:53:23;;;;;;;8.80;5.05;;;18.00;99.90;;;;;;5115836;28;20123;-69
2023/06/05 06:55:49;;;;;;;7.97;5.53;;;18.10;99.90;;;;;;5134043;28;20031;-69
2023/06/05 06:58:15;;;;;;;6.32;5.70;;;18.20;99.90;;;;;;5116002;28;20657;-69
2023/06/05 07:00:41;;;;;;;11.27;5.85;;;17.90;99.90;;;;;;5136999;27;20019;-69
2023/06/05 07:03:06;;;;;;;7.75;5.60;;;17.90;99.90;;;;;;5139318;27;20031;-69
2023/06/05 07:05:32;;;;;;;9.25;5.50;;;18.10;99.90;;;;;;5138887;27;20030;-69
2023/06/05 07:08:00;;;;;;;6.47;5.10;;;18.20;99.90;;;;;;5120097;27;20152;-69
2023/06/05 07:10:28;;;;;;;8.57;5.40;;;18.30;99.90;;;;;;5138222;27;20361;-69
2023/06/05 07:12:54;;;;;;;7.45;5.53;;;18.30;99.90;;;;;;5138102;27;20031;-69
2023/06/05 07:15:20;;;;;;;8.55;5.40;;;18.20;99.90;;;;;;5119646;27;20039;-69
2023/06/05 07:17:45;;;;;;;8.10;5.10;;;18.00;99.90;;;;;;5138145;27;20464;-69
2023/06/05 07:20:12;;;;;;;7.90;5.40;;;17.90;99.90;;;;;;5119578;27;20126;-69
2023/06/05 07:22:42;;;;;;;7.55;5.13;;;17.90;99.90;;;;;;5137955;27;20031;-69
2023/06/05 07:25:09;;;;;;;7.88;5.50;;;18.00;99.90;;;;;;5138530;27;20114;-69
2023/06/05 07:27:35;;;;;;;7.60;5.43;;;18.10;99.90;;;;;;5138348;27;20042;-69
2023/06/05 07:30:01;;;;;;;6.72;5.40;;;18.20;99.90;;;;;;5119464;27;20481;-69
2023/06/05 07:32:27;;;;;;;8.02;5.70;;;18.30;99.90;;;;;;5119355;27;20088;-70
2023/06/05 07:34:53;;;;;;;8.88;5.78;;;18.30;99.90;;;;;;5119456;27;20451;-69
2023/06/05 07:37:18;;;;;;;9.15;5.57;;;18.20;99.90;;;;;;5137645;27;20040;-69
2023/06/05 07:39:44;;;;;;;8.30;5.13;;;18.40;99.90;;;;;;5137390;27;20472;-69
2023/06/05 07:42:10;;;;;;;7.55;5.35;;;18.70;99.90;;;;;;5137603;27;20039;-70
2023/06/05 07:44:35;;;;;;;6.68;5.28;;;19.10;99.90;;;;;;5137507;27;20035;-69
2023/06/05 07:47:01;;;;;;;8.23;6.15;;;19.30;99.90;;;;;;5137528;27;20034;-69
2023/06/05 07:49:31;;;;;;;9.90;6.20;;;19.00;99.90;;;;;;5119210;27;20526;-69
2023/06/05 07:51:57;;;;;;;10.02;6.03;;;18.90;99.90;;;;;;5137330;27;20529;-69
2023/06/05 07:54:23;;;;;;;9.82;5.85;;;18.80;99.90;;;;;;5118930;27;20039;-69
2023/06/05 07:56:50;;;;;;;7.05;5.78;;;19.00;99.90;;;;;;5137286;27;20042;-69
2023/06/05 07:59:17;;;;;;;7.75;6.30;;;19.10;99.90;;;;;;5137081;27;20038;-69
2023/06/05 08:01:43;;;;;;;7.82;5.85;;;19.10;99.90;;;;;;5136771;27;20099;-69
2023/06/05 08:04:10;;;;;;;11.77;6.60;;;19.40;99.90;;;;;;5118720;27;20027;-69
2023/06/05 08:06:37;;;;;;;7.15;5.78;;;19.30;99.90;;;;;;5137227;27;20090;-69
2023/06/05 08:09:04;;;;;;;9.25;5.53;;;19.30;99.90;;;;;;5136989;27;20028;-68
2023/06/05 08:11:29;;;;;;;12.65;5.80;;;19.50;99.90;;;;;;5118537;27;20413;-70
2023/06/05 08:13:55;;;;;;;8.18;6.20;;;19.40;99.90;;;;;;5118556;27;20176;-69
2023/06/05 08:16:21;;;;;;;6.57;5.45;;;19.30;99.90;;;;;;5118500;27;20076;-69
2023/06/05 08:18:47;;;;;;;7.13;5.50;;;19.30;99.90;;;;;;5136898;27;20494;-70
2023/06/05 08:21:13;;;;;;;7.03;5.65;;;19.50;99.90;;;;;;5118513;27;20046;-70
2023/06/05 08:23:39;;;;;;;11.88;6.65;;;19.30;99.90;;;;;;5136851;27;20498;-69
2023/06/05 08:26:11;;;;;;;11.20;5.95;;;19.00;99.90;;;;;;5136481;27;20038;-69
2023/06/05 08:28:41;;;;;;;9.23;5.53;;;18.90;99.90;;;;;;5118617;27;20387;-69
2023/06/05 08:31:09;;;;;;;7.25;5.18;;;18.90;99.90;;;;;;5117825;27;20035;-69
2023/06/05 08:33:35;;;;;;;7.55;6.10;;;18.80;99.90;;;;;;5136457;27;20042;-69
2023/06/05 08:36:01;;;;;;;7.13;5.20;;;18.60;99.90;;;;;;5118109;27;20035;-70
2023/06/05 08:38:27;;;;;;;8.95;5.55;;;18.60;99.90;;;;;;5118085;27;20133;-69
2023/06/05 08:40:59;;;;;;;7.95;5.57;;;18.70;99.90;;;;;;5117913;27;20028;-70
2023/06/05 08:43:25;;;;;;;9.02;5.40;;;18.80;99.90;;;;;;5136788;27;20028;-69
2023/06/05 08:45:55;;;;;;;9.07;4.97;;;19.00;99.90;;;;;;5136387;27;20035;-69
2023/06/05 08:48:21;;;;;;;7.85;5.20;;;19.10;99.90;;;;;;5136378;27;20031;-69
2023/06/05 08:50:51;;;;;;;8.35;5.00;;;19.00;99.90;;;;;;5136182;27;20062;-70
2023/06/05 08:53:18;;;;;;;7.85;5.40;;;19.10;99.90;;;;;;5117567;27;20031;-70
2023/06/05 08:55:50;;;;;;;7.00;5.13;;;19.20;99.90;;;;;;5117614;27;20031;-70
2023/06/05 08:58:16;;;;;;;9.45;5.75;;;19.30;99.90;;;;;;5118020;27;20438;-66
2023/06/05 09:00:42;;;;;;;5.55;4.85;;;19.60;99.90;;;;;;5135774;27;20027;-66
2023/06/05 09:03:19;;;;;;;8.85;4.30;;;20.10;99.90;;;;;;5117639;27;20035;-66
2023/06/05 09:05:46;;;;;;;6.95;4.70;;;20.70;99.90;;;;;;5117652;27;20032;-66
2023/06/05 09:08:13;;;;;;;7.03;5.15;;;21.60;99.90;;;;;;5117508;27;20046;-73
2023/06/05 09:10:39;;;;;;;6.97;4.20;;;22.20;99.90;;;;;;5135596;27;20441;-70
2023/06/05 09:13:04;;;;;;;7.78;4.40;;;22.60;99.90;;;;;;5135833;27;20126;-71
2023/06/05 09:15:33;;;;;;;6.78;4.43;;;22.40;99.90;;;;;;5117342;27;20074;-70
2023/06/05 09:18:14;;;;;;;8.65;4.20;;;22.10;99.90;;;;;;5136077;27;20108;-70
2023/06/05 09:20:46;;;;;;;10.00;4.78;;;21.70;99.90;;;;;;5117050;27;20043;-72
2023/06/05 09:23:28;;;;;;;6.90;3.97;;;21.80;99.90;;;;;;5135161;27;20023;-71
2023/06/05 09:25:58;;;;;;;5.50;4.90;;;22.20;99.90;;;;;;5135240;27;20042;-71
2023/06/05 09:28:25;;;;;;;8.50;4.72;;;22.30;99.90;;;;;;5135808;27;20116;-72
2023/06/05 09:31:00;;;;;;;6.65;4.38;;;22.40;99.90;;;;;;5116970;27;20041;-71
2023/06/05 09:33:37;;;;;;;6.47;4.00;;;22.60;99.90;;;;;;5135725;27;20088;-70
2023/06/05 09:36:13;;;;;;;10.90;4.72;;;22.80;99.90;;;;;;5135420;27;20041;-73
2023/06/05 09:38:40;;;;;;;7.28;3.97;;;22.60;99.90;;;;;;5135087;27;20023;-72
2023/06/05 09:41:07;;;;;;;8.82;3.88;;;23.00;99.90;;;;;;5135289;27;20055;-71
2023/06/05 09:43:33;;;;;;;5.80;4.40;;;23.30;99.90;;;;;;5135355;27;20035;-71
2023/06/05 09:46:05;;;;;;;6.22;3.88;;;23.10;99.90;;;;;;5117062;27;20547;-70
2023/06/05 09:48:32;;;;;;;5.68;4.03;;;22.80;99.90;;;;;;5135062;27;20062;-71
2023/06/05 09:51:15;;;;;;;4.50;4.05;;;22.30;99.90;;;;;;5135256;27;20051;-72
2023/06/05 09:53:45;;;;;;;8.32;4.30;;;22.00;99.90;;;;;;5135250;27;20059;-72
2023/06/05 09:56:15;;;;;;;3.97;3.63;;;21.80;99.90;;;;;;5135145;27;20057;-72
2023/06/05 09:58:51;;;;;;;5.07;3.58;;;21.90;99.90;;;;;;5135028;27;20515;-72
2023/06/05 10:01:23;;;;;;;9.43;3.42;;;22.50;99.90;;;;;;5116224;27;20134;-72
2023/06/05 10:03:53;;;;;;;6.45;3.35;;;23.40;99.80;;;;;;5135069;27;20088;-64
2023/06/05 10:06:23;;;;;;;4.35;3.22;;;23.70;99.00;;;;;;5134937;27;20085;-62
2023/06/05 10:08:52;;;;;;;5.38;3.50;;;23.60;98.30;;;;;;5135088;27;20035;-63
2023/06/05 10:11:19;;;;;;;;;;;23.40;98.90;;;;;;5135479;27;20037;-64
2023/06/05 10:13:45;;;;;;;4.88;3.95;;;23.20;98.50;;;;;;5116495;28;19968;-64
2023/06/05 10:16:11;;;;;;;6.40;4.18;;;22.50;99.30;;;;;;5134683;27;20031;-65
2023/06/05 10:18:37;;;;;;;6.18;3.85;;;22.20;99.90;;;;;;5135014;27;20369;-65
2023/06/05 10:21:04;;;;;;;5.55;3.85;;;21.90;99.90;;;;;;5134306;27;20499;-65
2023/06/05 10:23:30;;;;;;;7.18;4.18;;;21.90;99.90;;;;;;5116051;28;20059;-65
2023/06/05 10:25:58;;;;;;;6.53;4.10;;;21.80;99.90;;;;;;5116552;27;20046;-65
2023/06/05 10:28:26;;;;;;;9.45;4.60;;;21.70;99.90;;;;;;5099413;28;20389;-65
2023/06/05 10:31:01;;;;;;;;;;;21.80;99.90;;;;;;5116488;28;20032;-65
2023/06/05 10:33:51;;;;;;;8.20;3.97;;;21.80;99.90;;;;;;5115799;27;19907;-65
2023/06/05 10:36:58;;;;;;;6.90;3.85;;;21.50;99.90;;;;;;5138078;27;20035;-65
2023/06/05 10:39:25;;;;;;;9.07;4.80;;;21.50;99.90;;;;;;5137970;27;20039;-65
2023/06/05 10:41:51;;;;;;;10.32;4.95;;;21.30;99.90;;;;;;5138701;27;20039;-65
2023/06/05 10:44:17;;;;;;;8.65;5.20;;;21.40;99.90;;;;;;5138428;27;20035;-65
2023/06/05 10:46:43;;;;;;;6.47;4.95;;;21.60;99.90;;;;;;5138676;27;20038;-65
2023/06/05 10:49:18;;;;;;;6.50;5.00;;;21.80;99.90;;;;;;5138546;27;20115;-65
2023/06/05 10:51:51;;;;;;;8.07;4.50;;;21.70;99.90;;;;;;5138411;27;20045;-65
2023/06/05 10:54:23;;;;;;;6.90;4.70;;;21.50;99.90;;;;;;5138417;27;20035;-65
2023/06/05 10:56:56;;;;;;;11.82;5.55;;;21.50;99.90;;;;;;5138461;27;20036;-65
2023/06/05 10:59:35;;;;;;;6.90;5.80;;;21.60;99.90;;;;;;5120330;27;20035;-65
2023/06/05 11:02:15;;;;;;;5.47;4.47;;;21.80;99.90;;;;;;5138218;27;20381;-65
2023/06/05 11:04:47;;;;;;;7.57;4.70;;;21.90;99.90;;;;;;5138452;27;20032;-65
2023/06/05 11:07:26;;;;;;;6.10;4.35;;;22.00;99.90;;;;;;5138442;27;20035;-65
2023/06/05 11:10:04;;;;;;;10.52;4.57;;;22.00;99.90;;;;;;5119922;27;20118;-65
2023/06/05 11:12:42;;;;;;;10.25;4.63;;;21.90;99.90;;;;;;5119457;27;20055;-65
2023/06/05 11:15:15;;;;;;;7.18;4.20;;;22.00;99.90;;;;;;5119630;27;20088;-65
2023/06/05 11:17:44;;;;;;;10.48;4.45;;;22.30;99.90;;;;;;5138144;27;20041;-65
2023/06/05 11:20:28;;;;;;;8.40;3.80;;;22.30;99.90;;;;;;5138082;27;20054;-65
2023/06/05 11:22:57;;;;;;;11.85;4.22;;;22.20;99.90;;;;;;5119750;27;20054;-65
2023/06/05 11:25:29;;;;;;;7.03;4.50;;;22.20;99.90;;;;;;5137690;27;20035;-65
2023/06/05 11:28:09;;;;;;;10.00;4.43;;;22.10;99.90;;;;;;5137569;27;20541;-65
2023/06/05 11:30:43;;;;;;;7.25;3.90;;;22.00;99.90;;;;;;5137860;27;20023;-65
2023/06/05 11:33:12;;;;;;;8.60;3.75;;;22.10;99.90;;;;;;5137852;27;20043;-64
2023/06/05 11:35:38;;;;;;;;;;;22.30;99.90;;;;;;5120071;27;20388;-65
2023/06/05 11:38:10;;;;;;;9.02;4.53;;;22.60;99.90;;;;;;5137853;27;20027;-65
2023/06/05 11:40:37;;;;;;;7.78;3.33;;;22.50;99.90;;;;;;5137668;27;20191;-65
2023/06/05 11:43:07;;;;;;;3.83;3.53;;;22.80;99.70;;;;;;5119535;27;20442;-65
2023/06/05 11:45:35;;;;;;;4.10;3.30;;;23.00;99.30;;;;;;5137345;27;20032;-65
2023/06/05 11:48:11;;;;;;;4.95;3.92;;;23.10;99.40;;;;;;5119231;27;20035;-65
2023/06/05 11:50:39;;;;;;;11.30;3.75;;;23.00;98.20;;;;;;5137710;27;20027;-65
2023/06/05 11:53:11;;;;;;;6.57;3.45;;;22.90;98.80;;;;;;5137389;27;20039;-65
2023/06/05 11:55:54;;;;;;;8.18;4.65;;;22.60;99.90;;;;;;5137329;27;20039;-65
2023/06/05 11:58:28;;;;;;;3.50;3.17;;;22.50;99.90;;;;;;5137856;27;20034;-65
2023/06/05 12:01:17;;;;;;;12.15;4.00;;;22.40;99.90;;;;;;5137152;27;20035;-65
2023/06/05 12:03:45;;;;;;;7.82;4.20;;;22.40;99.90;;;;;;5136272;28;20023;-65
2023/06/05 12:06:15;;;;;;;7.85;4.40;;;22.20;99.90;;;;;;5117652;28;20469;-66
2023/06/05 12:08:43;;;;;;;4.97;4.50;;;21.90;99.90;;;;;;5135751;28;20047;-65
2023/06/05 12:11:26;;;;;;;4.85;4.32;;;21.70;99.90;;;;;;5135739;28;20046;-65
2023/06/05 12:13:57;;;;;;;8.88;4.32;;;21.30;99.90;;;;;;5135932;28;20019;-65
2023/06/05 12:16:34;;;;;;;10.63;4.47;;;21.00;99.90;;;;;;5135879;28;20031;-65
2023/06/05 12:19:02;;;;;;;9.88;4.65;;;20.80;99.90;;;;;;5135803;28;20035;-65
2023/06/05 12:21:28;;;;;;;7.78;4.20;;;21.00;99.90;;;;;;5135939;28;20035;-65
2023/06/05 12:24:04;;;;;;;6.03;3.80;;;21.10;99.90;;;;;;5136166;28;20369;-65
2023/06/05 12:26:47;;;;;;;6.20;3.45;;;21.20;99.90;;;;;;5117368;28;20134;-65
2023/06/05 12:29:12;;;;;;;10.90;4.43;;;21.30;99.90;;;;;;5135696;28;20035;-65
2023/06/05 12:31:39;;;;;;;5.80;3.80;;;21.20;99.90;;;;;;5117357;28;20047;-65
2023/06/05 12:34:05;;;;;;;8.48;6.38;;;21.30;99.90;;;;;;5136542;28;20027;-65
2023/06/05 12:36:41;;;;;;;5.88;4.07;;;21.40;99.90;;;;;;5140900;28;20039;-65
2023/06/05 12:39:07;;;;;;;4.45;3.28;;;21.60;99.90;;;;;;5141942;28;20035;-65
2023/06/05 12:41:35;;;;;;;7.88;4.13;;;21.80;99.90;;;;;;5139837;28;20035;-65
2023/06/05 12:44:05;;;;;;;7.45;3.60;;;22.00;99.90;;;;;;5140790;28;20478;-65
2023/06/05 12:46:35;;;;;;;5.07;3.13;;;22.20;99.90;;;;;;5123284;28;20035;-65